Flag Pond, TN (37657)

4:04 PM EST on January 23, 2017 (GMT -0500)
N4WPP | | Change Station
Active Advisory: Wind Advisory

Elev 2680 ft 35.99 °N, 82.56 °W | Updated 36 seconds ago

Rain
Rain
45.7 °F
Feels Like 46 °F
N
0.0
Wind Variable Wind from SE
Gusts 0.0 mph

Today
High -- | Low -- °F
--% Chance of Precip.
Yesterday
High -- | Low -- °F
Precip. -- in
Pressure 29.35 in
Visibility 2.5 miles
Clouds Few 800 ft
Mostly Cloudy 2500 ft
Overcast 3100 ft
Windchill 46 °F
Dew Point 43 °F
Humidity 91%
Rainfall 0.25 in
Snow Depth Not available.
7:36 AM 5:48 PM
Waning Crescent, 16% visible
METAR KTRI 232053Z 28005KT 2 1/2SM -RA BR FEW008 BKN025 OVC031 10/09 A2938 RMK AO2 SLP937 P0001 60001 T01000089 53013
Pressure 29.35 in
Visibility 2.5 miles
Clouds Few 800 ft
Mostly Cloudy 2500 ft
Overcast 3100 ft
Windchill 46 °F
Dew Point 43 °F
Humidity 91%
Rainfall 0.25 in
Snow Depth Not available.
7:36 AM 5:48 PM
Waning Crescent, 16% visible
METAR KTRI 232053Z 28005KT 2 1/2SM -RA BR FEW008 BKN025 OVC031 10/09 A2938 RMK AO2 SLP937 P0001 60001 T01000089 53013

Get Your Daily Forecast Email!

Thanks for signing up!

Be on the lookout for a verification email in your inbox.

You'll start receiving the daily forecast at 8 AM.

×

10-Day Weather Forecast

Almanac

Astronomy

Jan. 23, 2017 Rise Set
Actual Time
Civil Twilight
Nautical Twilight
Astronomical Twilight
Moon
Length of Visible Light
Length of Day
Tomorrow will be .
, % of the Moon is Illuminated

Today's Extremes

State Highs State Lows

Community

WunderPhotos

Upload Photos

1,962,540 photos uploaded!

WunderBlog® & News

Nearby

Air Quality

  Air Quality AQ Index Pollutant
Not available.

Snow Depth

Station Depth Elevation

Earthquake Activity

City Distance Mag. Time & Date
Minimum magnitude displayed is 2.5.

Coastal Water Temperatures

Place Temperature

Stations

Nearby Weather Stations

Station Location Temp. Windchill Dew Point Humidity Wind Precip. Elev Updated Type
                   

Watches & Warnings

Wind Advisory
Issued: 9:44 AM EST Jan. 23, 2017 – National Weather Service

... Wind Advisory remains in effect from 7 PM this evening to
11 am EST Tuesday...

* event... sustained winds of 15 to 30 mph... with gusts of 40 to
50 mph.

* Timing... this morning through Tuesday morning.

* Impacts... isolated downed trees and power lines will be
possible... especially with the recent rainfall
accumulations... and unsecured outdoor objects may be blown over.
Driving may be difficult for high profile vehicles.

Precautionary/preparedness actions...

A Wind Advisory means that winds of 26 to 39 mph and/or gusts of
40 to 57 mph are expected or occurring. Winds this strong can
make driving difficult... especially for high profile vehicles.
Use extra caution.